Time;durP1;ratioP1;P1;durP2;ratioP2;P2;SDS_P1;SDS_P2;PMS_P1;PMS_P2;Temp;Humidity;BMP_temperature;BMP_pressure;BME280_temperature;BME280_humidity;BME280_pressure;Samples;Min_cycle;Max_cycle;Signal;HPM_P1;HPM_P2
2022/04/15 00:01:27;;;;;;;14.93;13.10;;;;;;;17.10;61.62;98422.47;8352985;28;20391;-69
2022/04/15 00:05:40;;;;;;;15.57;13.40;;;;;;;17.15;61.49;98425.66;8355672;28;20294;-69
2022/04/15 00:09:43;;;;;;;18.27;13.97;;;;;;;17.13;61.46;98424.88;8355937;28;20405;-69
2022/04/15 00:13:48;;;;;;;15.53;13.57;;;;;;;17.07;61.46;98420.03;8355701;28;20212;-69
2022/04/15 00:17:51;;;;;;;16.20;13.60;;;;;;;17.08;61.46;98420.91;8355717;28;20207;-69
2022/04/15 00:21:54;;;;;;;16.00;13.70;;;;;;;17.03;61.44;98421.19;8355392;28;20207;-69
2022/04/15 00:25:58;;;;;;;15.33;13.73;;;;;;;17.03;61.37;98422.97;8354985;28;20228;-70
2022/04/15 00:30:03;;;;;;;14.20;12.83;;;;;;;16.98;61.31;98420.63;8355005;28;20385;-69
2022/04/15 00:34:06;;;;;;;14.17;12.77;;;;;;;16.85;61.42;98410.13;8355100;28;20211;-69
2022/04/15 00:38:10;;;;;;;15.83;13.73;;;;;;;16.80;61.11;98412.13;8354697;28;20207;-69
2022/04/15 00:42:13;;;;;;;14.70;13.10;;;;;;;16.71;60.95;98410.09;8354908;28;20508;-69
2022/04/15 00:46:18;;;;;;;15.80;14.10;;;;;;;16.75;60.53;98403.72;8354466;28;20235;-70
2022/04/15 00:50:22;;;;;;;16.43;12.90;;;;;;;16.61;60.75;98417.66;8354314;28;20486;-68
2022/04/15 00:54:29;;;;;;;14.43;12.90;;;;;;;16.59;60.37;98415.16;8354000;28;20236;-69
2022/04/15 00:58:32;;;;;;;14.13;12.57;;;;;;;16.50;60.37;98417.50;8354607;28;20193;-69
2022/04/15 01:02:38;;;;;;;14.70;13.20;;;;;;;16.48;59.87;98422.81;8353748;28;20201;-70
2022/04/15 01:06:41;;;;;;;17.33;13.40;;;;;;;16.40;60.01;98425.06;8353934;28;20391;-69
2022/04/15 01:10:45;;;;;;;14.63;13.13;;;;;;;16.35;59.82;98425.31;8353366;28;20201;-69
2022/04/15 01:14:49;;;;;;;12.13;10.93;;;;;;;16.33;59.66;98427.19;8353542;28;20392;-69
2022/04/15 01:18:54;;;;;;;13.37;11.97;;;;;;;16.18;59.91;98434.19;8353371;28;20200;-69
2022/04/15 01:23:00;;;;;;;13.73;12.27;;;;;;;16.11;60.00;98429.44;8353459;28;20224;-69
2022/04/15 01:27:04;;;;;;;12.43;11.33;;;;;;;16.04;60.35;98439.41;8353358;28;20262;-69
2022/04/15 01:31:07;;;;;;;10.93;9.93;;;;;;;16.07;60.17;98438.34;8352958;28;20207;-69
2022/04/15 01:35:12;;;;;;;10.43;9.43;;;;;;;15.92;60.37;98438.34;8353286;28;20204;-69
2022/04/15 01:39:17;;;;;;;10.43;9.20;;;;;;;16.00;59.88;98440.50;8353000;28;20204;-69
2022/04/15 01:43:20;;;;;;;11.93;9.30;;;;;;;15.95;59.83;98437.31;8351179;28;20224;-69
2022/04/15 01:47:23;;;;;;;12.70;10.90;;;;;;;15.94;60.11;98443.50;8352420;28;20236;-69
2022/04/15 01:51:26;;;;;;;11.83;10.60;;;;;;;15.87;59.84;98439.56;8352578;28;20498;-68
2022/04/15 01:55:31;;;;;;;11.97;10.87;;;;;;;15.86;59.69;98437.84;8352764;28;20228;-69
2022/04/15 01:59:34;;;;;;;14.97;11.40;;;;;;;15.69;60.15;98434.44;8352108;28;20200;-69
2022/04/15 02:03:36;;;;;;;11.97;10.77;;;;;;;15.71;59.78;98435.19;8352169;28;20231;-69
2022/04/15 02:07:39;;;;;;;11.53;10.43;;;;;;;15.63;59.88;98435.63;8351847;28;20224;-69
2022/04/15 02:11:44;;;;;;;11.67;10.47;;;;;;;15.48;59.67;98446.09;8351774;28;20208;-69
2022/04/15 02:15:47;;;;;;;12.23;10.90;;;;;;;15.49;59.24;98439.94;8351594;28;20208;-70
2022/04/15 02:19:50;;;;;;;12.07;10.97;;;;;;;15.42;58.96;98448.13;8351440;28;20206;-69
2022/04/15 02:23:53;;;;;;;11.50;10.40;;;;;;;15.26;59.44;98442.09;8350525;28;20232;-69
2022/04/15 02:27:58;;;;;;;12.13;10.60;;;;;;;15.30;59.36;98438.38;8351256;28;20311;-69
2022/04/15 02:32:01;;;;;;;12.33;11.03;;;;;;;15.20;59.18;98440.66;8351048;28;20207;-70
2022/04/15 02:36:05;;;;;;;11.70;10.70;;;;;;;15.22;59.19;98444.03;8351278;28;20213;-69
2022/04/15 02:40:09;;;;;;;11.97;10.57;;;;;;;15.16;59.16;98439.16;8351025;28;20204;-69
2022/04/15 02:44:13;;;;;;;11.63;10.60;;;;;;;15.13;59.27;98441.09;8350877;28;20561;-69
2022/04/15 02:48:16;;;;;;;11.57;10.47;;;;;;;15.17;59.02;98453.03;8350635;28;20211;-69
2022/04/15 02:52:19;;;;;;;11.90;10.53;;;;;;;15.09;59.29;98448.25;8350554;28;20475;-69
2022/04/15 02:56:22;;;;;;;11.30;10.30;;;;;;;15.16;58.95;98452.19;8350258;28;20228;-69
2022/04/15 03:00:26;;;;;;;10.93;9.83;;;;;;;15.05;58.56;98459.75;8350336;28;20201;-69
2022/04/15 03:04:30;;;;;;;10.60;9.60;;;;;;;15.00;58.35;98453.94;8350049;28;20234;-69
2022/04/15 03:08:33;;;;;;;10.07;9.17;;;;;;;15.04;58.05;98451.13;8349962;28;20220;-69
2022/04/15 03:12:36;;;;;;;10.20;9.30;;;;;;;14.97;57.83;98451.53;8350339;28;20204;-69
2022/04/15 03:16:41;;;;;;;9.77;8.87;;;;;;;14.88;58.17;98458.06;8349963;28;20212;-69
2022/04/15 03:20:44;;;;;;;9.57;8.67;;;;;;;14.84;57.90;98457.41;8349941;28;20200;-69
2022/04/15 03:24:47;;;;;;;10.03;9.13;;;;;;;14.76;58.15;98462.19;8349713;28;20223;-69
2022/04/15 03:28:50;;;;;;;10.80;9.70;;;;;;;14.75;58.54;98457.06;8349694;28;20200;-69
2022/04/15 03:32:54;;;;;;;9.77;8.93;;;;;;;14.78;57.88;98459.50;8349338;28;20219;-69
2022/04/15 03:36:58;;;;;;;10.67;9.63;;;;;;;14.77;57.76;98465.63;8349657;28;20208;-70
2022/04/15 03:41:01;;;;;;;10.10;9.20;;;;;;;14.72;58.16;98467.66;8349352;28;20212;-69
2022/04/15 03:45:04;;;;;;;10.80;9.80;;;;;;;14.61;57.81;98469.06;8349368;28;20341;-69
2022/04/15 03:49:08;;;;;;;10.07;9.07;;;;;;;14.64;57.68;98481.94;8349207;28;20212;-69
2022/04/15 03:53:11;;;;;;;8.97;8.17;;;;;;;14.56;57.63;98480.59;8348997;28;20200;-68
2022/04/15 03:57:14;;;;;;;9.43;8.63;;;;;;;14.40;58.05;98493.59;8348833;28;20251;-69
2022/04/15 04:01:18;;;;;;;8.73;7.80;;;;;;;14.53;57.82;98494.66;8349032;28;20200;-69
2022/04/15 04:05:22;;;;;;;9.60;8.70;;;;;;;14.50;58.43;98486.16;8348868;28;20231;-69
2022/04/15 04:09:25;;;;;;;9.83;9.03;;;;;;;14.47;58.25;98490.59;8348715;28;20220;-68
2022/04/15 04:13:28;;;;;;;10.20;9.30;;;;;;;14.55;58.09;98494.59;8348927;28;20388;-68
2022/04/15 04:17:32;;;;;;;11.13;10.13;;;;;;;14.41;58.12;98487.47;8348700;28;20271;-69
2022/04/15 04:21:36;;;;;;;10.17;9.27;;;;;;;14.53;58.22;98488.59;8348700;28;20211;-69
2022/04/15 04:25:39;;;;;;;10.77;9.63;;;;;;;14.47;57.73;98493.22;8348521;28;20234;-68
2022/04/15 04:29:42;;;;;;;10.07;9.23;;;;;;;14.37;58.26;98493.75;8348536;28;20201;-69
2022/04/15 04:33:45;;;;;;;9.20;8.40;;;;;;;14.30;57.68;98484.56;8348887;28;20208;-68
2022/04/15 04:37:49;;;;;;;8.00;7.33;;;;;;;14.31;57.63;98488.88;8348394;28;20204;-69
2022/04/15 04:41:53;;;;;;;8.33;7.63;;;;;;;14.33;57.51;98493.06;8348326;28;20200;-70
2022/04/15 04:45:56;;;;;;;8.37;7.50;;;;;;;14.28;57.41;98500.28;8350259;28;20231;-69
2022/04/15 04:50:01;;;;;;;8.27;7.57;;;;;;;14.21;57.64;98497.13;8354629;28;20487;-69
2022/04/15 04:54:05;;;;;;;13.20;9.20;;;;;;;14.12;58.41;98501.97;8353794;28;20251;-69
2022/04/15 04:58:08;;;;;;;11.27;10.27;;;;;;;14.18;59.21;98504.25;8354370;28;20503;-69
2022/04/15 05:02:12;;;;;;;10.80;9.90;;;;;;;14.24;59.42;98517.84;8354236;28;20200;-69
2022/04/15 05:06:15;;;;;;;11.63;10.53;;;;;;;14.25;59.61;98505.66;8353958;28;20412;-69
2022/04/15 05:10:19;;;;;;;18.10;11.10;;;;;;;14.02;60.44;98512.84;8353621;28;20227;-69
2022/04/15 05:14:22;;;;;;;18.67;10.80;;;;;;;14.21;60.31;98523.19;8354054;28;20398;-69
2022/04/15 05:18:25;;;;;;;14.80;10.67;;;;;;;14.26;59.80;98522.97;8353928;28;20518;-69
2022/04/15 05:22:28;;;;;;;16.43;11.90;;;;;;;14.37;59.48;98519.81;8353211;28;20206;-69
2022/04/15 05:26:33;;;;;;;13.40;11.10;;;;;;;14.42;59.24;98536.06;8353345;28;20338;-69
2022/04/15 05:30:36;;;;;;;15.67;11.80;;;;;;;14.38;59.37;98532.75;8353202;28;20200;-69
2022/04/15 05:34:39;;;;;;;11.87;10.70;;;;;;;14.37;59.63;98533.66;8352977;28;20204;-69
2022/04/15 05:38:42;;;;;;;12.10;10.90;;;;;;;14.32;60.38;98530.47;8353106;28;20220;-69
2022/04/15 05:42:48;;;;;;;12.50;11.30;;;;;;;14.46;60.10;98543.63;8352681;28;20314;-69
2022/04/15 05:46:51;;;;;;;11.97;10.87;;;;;;;14.65;59.87;98547.94;8352579;28;20535;-69
2022/04/15 05:50:54;;;;;;;11.27;10.17;;;;;;;14.94;58.77;98556.00;8352472;28;20207;-69
2022/04/15 05:54:57;;;;;;;11.37;10.17;;;;;;;14.94;58.99;98554.22;8352663;28;20546;-71
2022/04/15 05:59:02;;;;;;;12.43;11.30;;;;;;;15.04;59.39;98567.63;8350858;28;20212;-69
2022/04/15 06:03:07;;;;;;;11.63;10.53;;;;;;;15.13;59.13;98566.28;8351940;28;20407;-69
2022/04/15 06:07:10;;;;;;;9.57;8.77;;;;;;;15.09;59.69;98564.78;8351936;28;20327;-69
2022/04/15 06:11:13;;;;;;;9.00;8.20;;;;;;;15.20;59.29;98567.66;8351695;28;20207;-69
2022/04/15 06:15:18;;;;;;;11.00;8.70;;;;;;;15.09;59.54;98573.44;8351492;28;20204;-69
2022/04/15 06:19:22;;;;;;;9.37;8.40;;;;;;;15.14;59.40;98581.03;8351615;28;20504;-68
2022/04/15 06:23:27;;;;;;;10.97;9.97;;;;;;;15.21;59.57;98578.03;8351690;28;20237;-69
2022/04/15 06:27:30;;;;;;;12.17;10.97;;;;;;;15.37;60.10;98577.19;8351276;28;20531;-69
2022/04/15 06:31:34;;;;;;;12.83;11.50;;;;;;;15.53;59.53;98577.19;8351071;28;20207;-69
2022/04/15 06:35:39;;;;;;;14.37;12.93;;;;;;;15.69;59.13;98575.44;8351064;28;20551;-69
2022/04/15 06:39:42;;;;;;;19.53;17.33;;;;;;;15.81;59.49;98564.31;8351073;28;20485;-68
2022/04/15 06:43:45;;;;;;;18.53;16.73;;;;;;;16.01;59.71;98572.78;8351005;28;20222;-69
2022/04/15 06:47:50;;;;;;;17.03;14.73;;;;;;;16.26;58.90;98574.84;8350643;28;20290;-69
2022/04/15 06:51:52;;;;;;;16.73;15.03;;;;;;;16.33;59.13;98583.16;8350651;28;20200;-69
2022/04/15 06:55:55;;;;;;;19.23;16.87;;;;;;;16.23;58.89;98586.31;8350913;28;20242;-69
2022/04/15 06:59:59;;;;;;;18.17;16.30;;;;;;;16.39;59.45;98588.91;8350241;28;20207;-69
2022/04/15 07:04:03;;;;;;;16.77;15.17;;;;;;;16.32;59.85;98591.97;8350432;28;20206;-69
2022/04/15 07:08:09;;;;;;;18.97;16.07;;;;;;;16.09;60.88;98586.28;8349865;28;20231;-69
2022/04/15 07:12:12;;;;;;;17.77;15.90;;;;;;;16.28;60.17;98601.75;8350338;28;20200;-69
2022/04/15 07:16:15;;;;;;;17.20;15.37;;;;;;;16.30;60.70;98597.28;8349896;28;20239;-69
2022/04/15 07:20:19;;;;;;;19.60;17.50;;;;;;;16.47;60.34;98588.44;8349882;28;20376;-69
2022/04/15 07:24:22;;;;;;;22.03;16.50;;;;;;;16.60;59.82;98586.78;8349646;28;20203;-68
2022/04/15 07:28:25;;;;;;;18.73;16.83;;;;;;;16.67;59.89;98591.66;8349534;28;20227;-69
2022/04/15 07:32:29;;;;;;;19.27;17.23;;;;;;;16.67;60.45;98594.28;8349782;28;20398;-68
2022/04/15 07:36:43;;;;;;;17.70;15.87;;;;;;;16.80;60.10;98597.84;8349690;28;20499;-70
2022/04/15 07:40:46;;;;;;;15.97;14.37;;;;;;;16.93;59.36;98603.22;8349383;28;20200;-69
2022/04/15 07:44:49;;;;;;;15.40;13.80;;;;;;;17.36;58.60;98605.81;8349296;28;20212;-68
2022/04/15 07:48:52;;;;;;;13.97;12.67;;;;;;;17.94;57.53;98607.41;8349140;28;20230;-69
2022/04/15 07:53:00;;;;;;;13.13;11.83;;;;;;;18.14;57.32;98608.75;8349165;28;20267;-69
2022/04/15 07:57:04;;;;;;;15.20;13.70;;;;;;;17.91;57.65;98617.25;8349137;28;20493;-69
2022/04/15 08:01:09;;;;;;;14.37;12.87;;;;;;;17.98;57.03;98616.75;8349173;28;20488;-68
2022/04/15 08:05:12;;;;;;;14.47;13.07;;;;;;;19.16;54.59;98609.84;8349258;28;20432;-68
2022/04/15 08:09:16;;;;;;;17.07;12.60;;;;;;;19.20;54.66;98623.59;8348932;28;20220;-68
2022/04/15 08:13:19;;;;;;;15.30;13.77;;;;;;;18.51;56.52;98623.84;8348948;28;20204;-68
2022/04/15 08:17:23;;;;;;;15.73;14.23;;;;;;;18.40;56.87;98615.84;8348737;28;20204;-68
2022/04/15 08:21:26;;;;;;;15.83;14.23;;;;;;;18.20;56.77;98618.00;8351760;28;20400;-68
2022/04/15 08:25:30;;;;;;;14.37;12.97;;;;;;;19.77;53.09;98623.09;8355126;28;20231;-68
2022/04/15 08:29:35;;;;;;;15.07;13.57;;;;;;;20.07;50.58;98616.56;8355198;28;20499;-68
2022/04/15 08:33:38;;;;;;;15.07;13.47;;;;;;;20.67;49.27;98630.56;8355202;28;20207;-68
2022/04/15 08:37:41;;;;;;;14.33;12.93;;;;;;;20.78;49.29;98627.13;8354807;28;20292;-68
2022/04/15 08:41:46;;;;;;;16.17;13.37;;;;;;;20.54;49.83;98633.22;8354629;28;20201;-68
2022/04/15 08:45:49;;;;;;;14.37;12.40;;;;;;;20.60;47.97;98627.56;8354428;28;20247;-68
2022/04/15 08:49:52;;;;;;;14.13;12.73;;;;;;;21.35;47.11;98634.13;8354827;28;20283;-67
2022/04/15 08:53:55;;;;;;;14.97;13.50;;;;;;;21.65;45.68;98627.44;8353554;28;20241;-70
2022/04/15 08:57:59;;;;;;;14.70;13.10;;;;;;;21.87;44.17;98626.53;8353427;28;20203;-68
2022/04/15 09:02:05;;;;;;;17.97;14.63;;;;;;;21.73;43.68;98621.56;8349354;28;20217;-68
2022/04/15 09:06:14;;;;;;;15.97;13.83;;;;;;;22.08;41.90;98623.97;8353234;28;20409;-68
2022/04/15 09:10:18;;;;;;;16.37;14.67;;;;;;;22.15;40.63;98624.31;8353061;28;20546;-68
2022/04/15 09:14:22;;;;;;;15.90;13.77;;;;;;;22.64;41.93;98626.41;8353134;28;20193;-68
2022/04/15 09:18:29;;;;;;;13.50;12.10;;;;;;;22.86;41.01;98621.13;8352910;28;20197;-68
2022/04/15 09:22:32;;;;;;;13.80;11.33;;;;;;;23.21;40.86;98634.81;8353096;28;20488;-68
2022/04/15 09:26:37;;;;;;;18.43;12.63;;;;;;;22.86;39.24;98629.03;8353010;28;20410;-68
2022/04/15 09:30:42;;;;;;;14.70;13.20;;;;;;;22.59;39.92;98623.31;8349737;28;20196;-68
2022/04/15 09:34:54;;;;;;;14.50;10.93;;;;;;;23.09;41.24;98624.47;8353217;28;20197;-68
2022/04/15 09:39:04;;;;;;;12.90;11.57;;;;;;;23.66;38.98;98611.59;8353212;28;20360;-67
2022/04/15 09:43:07;;;;;;;12.30;9.40;;;;;;;24.47;37.79;98608.81;8352918;28;20365;-69
2022/04/15 09:47:11;;;;;;;18.60;10.63;;;;;;;24.57;37.63;98605.19;8352474;28;20355;-69
2022/04/15 09:51:19;;;;;;;11.10;10.00;;;;;;;23.69;37.28;98606.91;8352176;28;20208;-68
2022/04/15 09:55:23;;;;;;;11.17;9.90;;;;;;;22.96;39.40;98609.66;8352336;28;20236;-68
2022/04/15 09:59:27;;;;;;;9.97;8.87;;;;;;;22.24;40.36;98605.09;8352636;28;20398;-68
2022/04/15 10:03:36;;;;;;;13.23;10.17;;;;;;;22.63;40.26;98611.50;8352039;28;20418;-68
2022/04/15 10:07:45;;;;;;;11.37;9.83;;;;;;;21.90;41.44;98601.75;8351541;28;20531;-68
2022/04/15 10:11:49;;;;;;;10.97;9.20;;;;;;;23.37;39.54;98601.78;8351148;28;20259;-68
2022/04/15 10:15:53;;;;;;;10.10;9.13;;;;;;;23.09;38.93;98596.25;8348944;28;20200;-68
2022/04/15 10:19:58;;;;;;;10.03;8.60;;;;;;;23.29;39.53;98597.16;8351010;28;20200;-69
2022/04/15 10:24:02;;;;;;;13.67;10.30;;;;;;;21.83;40.46;98598.75;8350626;28;20203;-68
2022/04/15 10:28:07;;;;;;;12.30;9.83;;;;;;;22.02;40.59;98592.81;8351284;28;20224;-68
2022/04/15 10:32:14;;;;;;;10.63;9.53;;;;;;;21.73;42.15;98587.28;8351251;28;20206;-68
2022/04/15 10:36:21;;;;;;;9.87;8.87;;;;;;;22.30;40.71;98587.97;8351139;28;20215;-68
2022/04/15 10:40:29;;;;;;;10.50;9.40;;;;;;;21.35;42.09;98591.97;8351049;28;20207;-68
2022/04/15 10:44:35;;;;;;;9.20;8.30;;;;;;;21.97;41.63;98589.72;8349640;28;20224;-68
2022/04/15 10:48:39;;;;;;;8.47;6.40;;;;;;;22.95;41.61;98584.19;8347167;28;20216;-69
2022/04/15 10:52:43;;;;;;;14.53;7.10;;;;;;;22.51;42.30;98594.09;8349936;28;20195;-67
2022/04/15 10:57:02;;;;;;;8.30;5.93;;;;;;;22.42;40.03;98584.28;8349390;28;20252;-68
2022/04/15 11:01:18;;;;;;;8.97;5.43;;;;;;;22.27;39.60;98581.13;8346673;28;20207;-68
2022/04/15 11:05:35;;;;;;;24.73;6.03;;;;;;;23.10;36.78;98582.06;8349551;28;20225;-67
2022/04/15 11:09:39;;;;;;;8.73;4.90;;;;;;;23.08;35.59;98577.91;8348243;28;20234;-68
2022/04/15 11:13:59;;;;;;;11.00;4.83;;;;;;;22.60;34.88;98584.56;8349379;28;20192;-68
2022/04/15 11:18:14;;;;;;;7.73;3.80;;;;;;;23.44;34.29;98581.78;8348932;28;20303;-68
2022/04/15 11:22:18;;;;;;;4.90;3.20;;;;;;;23.36;32.70;98577.19;8349104;28;20197;-67
2022/04/15 11:26:23;;;;;;;3.93;2.80;;;;;;;23.62;31.88;98576.66;8346288;28;20209;-70
2022/04/15 11:30:26;;;;;;;6.13;2.40;;;;;;;23.61;31.27;98580.31;8348888;28;20200;-68
2022/04/15 11:34:29;;;;;;;2.97;1.60;;;;;;;23.60;31.44;98579.44;8348739;28;20204;-68
2022/04/15 11:38:34;;;;;;;2.50;1.50;;;;;;;23.38;30.32;98569.09;8348762;28;20196;-68
2022/04/15 11:42:38;;;;;;;4.17;1.20;;;;;;;23.59;30.59;98561.94;8358546;28;20196;-66
2022/04/15 11:46:43;;;;;;;2.80;1.10;;;;;;;24.52;29.72;98561.56;8348503;28;20224;-67
2022/04/15 11:50:46;;;;;;;2.73;1.80;;;;;;;24.50;29.09;98560.84;8348919;28;20209;-68
2022/04/15 11:54:49;;;;;;;4.27;1.90;;;;;;;23.68;29.75;98567.38;8349873;28;20246;-68
2022/04/15 11:58:54;;;;;;;9.30;2.30;;;;;;;24.10;29.80;98562.69;8354878;28;20204;-68
2022/04/15 12:03:01;;;;;;;8.63;2.03;;;;;;;23.16;30.83;98557.75;8349969;28;20272;-68
2022/04/15 12:07:14;;;;;;;8.17;1.97;;;;;;;22.23;32.43;98556.75;8355400;28;20239;-68
2022/04/15 12:11:22;;;;;;;5.23;1.60;;;;;;;23.17;31.41;98554.16;8355678;28;20518;-67
2022/04/15 12:15:28;;;;;;;3.43;1.60;;;;;;;23.62;31.36;98545.78;8355307;28;20206;-67
2022/04/15 12:19:31;;;;;;;2.33;1.33;;;;;;;23.74;31.52;98553.59;8355142;28;20295;-71
2022/04/15 12:23:34;;;;;;;4.20;1.40;;;;;;;23.01;31.72;98553.78;8355028;28;20208;-68
2022/04/15 12:27:37;;;;;;;3.30;1.27;;;;;;;22.33;32.52;98554.25;8354944;28;20228;-68
2022/04/15 12:31:42;;;;;;;2.57;1.10;;;;;;;23.22;31.42;98559.03;8355323;28;20200;-68
2022/04/15 12:35:58;;;;;;;2.37;0.90;;;;;;;23.86;29.60;98546.41;8355214;28;20375;-68
2022/04/15 12:40:01;;;;;;;2.80;1.00;;;;;;;23.81;29.08;98544.16;8355085;28;20212;-68
2022/04/15 12:44:18;;;;;;;2.60;1.10;;;;;;;24.27;28.44;98549.75;8354932;28;20200;-68
2022/04/15 12:48:24;;;;;;;1.53;0.80;;;;;;;24.33;28.03;98538.59;8354626;28;20250;-65
2022/04/15 12:52:32;;;;;;;3.53;1.30;;;;;;;24.39;28.66;98538.88;8354645;28;20197;-66
2022/04/15 12:56:36;;;;;;;4.50;2.57;;;;;;;24.02;31.56;98546.69;8353862;28;20235;-66
2022/04/15 13:00:39;;;;;;;7.00;3.30;;;;;;;22.97;33.26;98558.50;8354027;28;20388;-66
2022/04/15 13:04:50;;;;;;;5.23;2.90;;;;;;;22.59;34.19;98548.56;8354286;28;20204;-65
2022/04/15 13:08:53;;;;;;;5.90;2.40;;;;;;;23.62;32.91;98542.31;8353095;28;20244;-65
2022/04/15 13:12:57;;;;;;;5.53;2.10;;;;;;;24.18;30.71;98538.22;8353800;28;20207;-65
2022/04/15 13:17:00;;;;;;;3.97;1.97;;;;;;;22.86;32.99;98547.19;8353774;28;20204;-65
2022/04/15 13:21:05;;;;;;;15.03;2.27;;;;;;;23.19;32.63;98535.53;8353710;28;20478;-65
2022/04/15 13:25:08;;;;;;;3.17;1.87;;;;;;;23.08;32.29;98544.41;8353757;28;20201;-65
2022/04/15 13:29:11;;;;;;;10.23;1.97;;;;;;;23.16;32.66;98528.69;8353578;28;20419;-65
2022/04/15 13:33:14;;;;;;;5.30;1.87;;;;;;;23.87;30.97;98529.56;8351927;28;20193;-66
2022/04/15 13:37:19;;;;;;;6.37;2.00;;;;;;;23.39;31.98;98531.97;8352150;28;20208;-66
2022/04/15 13:41:22;;;;;;;3.30;1.90;;;;;;;23.83;30.85;98523.72;8352646;28;20208;-66
2022/04/15 13:45:25;;;;;;;6.80;1.83;;;;;;;23.71;29.98;98519.50;8352691;28;20200;-65
2022/04/15 13:49:28;;;;;;;2.20;1.30;;;;;;;23.15;30.65;98531.47;8352427;28;20231;-66
2022/04/15 13:57:53;;;;;;;2.30;1.10;;;;;;;22.50;31.31;98529.06;8352398;28;20216;-66
2022/04/15 14:01:56;;;;;;;1.97;1.20;;;;;;;22.94;30.09;98526.22;8352114;28;20211;-66
2022/04/15 14:05:59;;;;;;;3.13;1.27;;;;;;;23.13;30.21;98522.84;8350639;28;20204;-66
2022/04/15 14:10:04;;;;;;;3.77;1.50;;;;;;;22.72;31.14;98537.81;8351976;28;20231;-66
2022/04/15 14:14:08;;;;;;;2.53;1.47;;;;;;;22.89;29.73;98528.44;8351906;28;20207;-66
2022/04/15 14:18:11;;;;;;;5.30;1.17;;;;;;;22.90;31.22;98523.00;8350675;28;20499;-66
2022/04/15 14:22:16;;;;;;;5.33;1.20;;;;;;;23.43;30.23;98524.59;8351489;28;20224;-65
2022/04/15 14:26:20;;;;;;;10.27;1.30;;;;;;;22.63;30.64;98529.69;8350669;28;20494;-67
2022/04/15 14:30:23;;;;;;;2.47;1.20;;;;;;;22.44;30.41;98533.06;8348686;28;20234;-66
2022/04/15 14:34:27;;;;;;;2.70;1.20;;;;;;;22.12;31.67;98522.53;8351342;28;20201;-65
2022/04/15 14:38:32;;;;;;;5.00;1.20;;;;;;;21.92;31.00;98528.63;8350876;28;20205;-65
2022/04/15 14:42:36;;;;;;;1.73;1.10;;;;;;;21.89;31.09;98523.59;8350855;28;20267;-66
2022/04/15 14:46:40;;;;;;;2.53;1.00;;;;;;;22.54;30.46;98527.84;8350707;28;20234;-65
2022/04/15 14:50:44;;;;;;;4.20;1.30;;;;;;;22.25;30.06;98531.13;8350707;28;20318;-65
2022/04/15 14:54:47;;;;;;;2.50;1.10;;;;;;;22.47;29.33;98529.34;8350859;28;20550;-66
2022/04/15 14:58:53;;;;;;;4.70;1.47;;;;;;;22.84;28.79;98526.19;8349846;28;20862;-65
2022/04/15 15:02:56;;;;;;;2.13;0.90;;;;;;;21.99;29.00;98525.38;8349055;28;20387;-65
2022/04/15 15:06:59;;;;;;;2.50;1.10;;;;;;;22.25;29.24;98536.41;8346819;28;20196;-65
2022/04/15 15:11:06;;;;;;;4.60;1.23;;;;;;;22.41;28.98;98525.41;8349331;28;20226;-65
2022/04/15 15:15:12;;;;;;;4.20;1.20;;;;;;;22.29;29.88;98521.16;8349633;28;20196;-65
2022/04/15 15:19:15;;;;;;;2.30;1.23;;;;;;;22.43;29.47;98538.47;8349746;28;20204;-65
2022/04/15 15:23:18;;;;;;;2.27;1.13;;;;;;;21.94;30.66;98532.81;8349570;28;20200;-65
2022/04/15 15:31:44;;;;;;;2.80;1.10;;;;;;;21.48;30.70;98537.38;8318698;28;20310;-65
2022/04/15 15:35:48;;;;;;;3.63;1.13;;;;;;;21.00;31.09;98539.44;8360855;28;20201;-64
2022/04/15 15:39:51;;;;;;;4.83;2.00;;;;;;;20.77;32.77;98539.44;8349532;28;20382;-64
2022/04/15 15:43:54;;;;;;;3.83;2.00;;;;;;;21.02;33.04;98545.44;8349707;28;20213;-77
2022/04/15 15:47:59;;;;;;;6.17;1.90;;;;;;;20.92;33.47;98552.34;8349058;28;20201;-65
2022/04/15 15:52:02;;;;;;;6.90;4.93;;;;;;;21.26;33.78;98551.38;8312657;22;20244;-79
2022/04/15 15:56:06;;;;;;;9.70;2.53;;;;;;;20.76;33.11;98555.34;8251809;28;20207;-78
2022/04/15 16:00:10;;;;;;;7.93;2.23;;;;;;;20.94;34.24;98558.34;8248707;28;20218;-78
2022/04/15 16:04:15;;;;;;;5.13;2.00;;;;;;;20.56;33.66;98565.56;8251726;28;20203;-78
2022/04/15 16:08:18;;;;;;;6.73;1.90;;;;;;;20.59;34.11;98565.31;8251972;28;20557;-78
2022/04/15 16:12:21;;;;;;;7.33;2.23;;;;;;;20.42;34.28;98582.38;8250625;28;20205;-77
2022/04/15 16:16:24;;;;;;;5.70;2.50;;;;;;;20.25;34.68;98583.63;8249934;28;20195;-75
2022/04/15 16:20:28;;;;;;;6.27;2.80;;;;;;;20.37;34.43;98583.69;8249956;28;20273;-75
2022/04/15 16:24:31;;;;;;;4.57;2.03;;;;;;;19.99;34.08;98589.97;8241958;28;20323;-76
2022/04/15 16:28:34;;;;;;;4.40;2.10;;;;;;;19.98;35.13;98590.94;8219621;28;20231;-75
2022/04/15 16:32:38;;;;;;;5.03;2.17;;;;;;;19.59;36.50;98592.84;8238377;28;20286;-76
2022/04/15 16:36:42;;;;;;;7.27;2.43;;;;;;;19.41;36.27;98606.31;8235459;28;20227;-77
2022/04/15 16:40:45;;;;;;;12.10;2.80;;;;;;;19.53;37.53;98613.34;8219094;28;20277;-78
2022/04/15 16:44:48;;;;;;;6.97;2.37;;;;;;;19.24;38.01;98625.06;8225519;29;20390;-78
2022/04/15 16:49:12;;;;;;;8.60;2.40;;;;;;;18.89;38.49;98621.28;8225165;29;20233;-79
2022/04/15 16:53:16;;;;;;;5.27;2.30;;;;;;;18.80;38.01;98626.28;8224447;29;20323;-78
2022/04/15 17:01:54;;;;;;;5.17;1.90;;;;;;;18.74;39.67;98631.00;8189863;29;20204;-80
2022/04/15 17:17:02;;;;;;;4.60;2.30;;;;;;;18.57;38.55;98649.66;8312607;28;20184;-82
2022/04/15 17:21:07;;;;;;;2.97;2.10;;;;;;;18.20;38.84;98652.06;8321086;28;20217;-80
2022/04/15 17:25:11;;;;;;;3.63;2.00;;;;;;;17.77;38.97;98660.00;8320640;28;20231;-75
2022/04/15 17:29:15;;;;;;;3.23;1.90;;;;;;;17.26;39.96;98665.75;8320862;28;20229;-77
2022/04/15 17:33:24;;;;;;;3.03;1.90;;;;;;;17.18;39.66;98675.84;8320627;28;20374;-80
2022/04/15 17:37:27;;;;;;;2.40;1.77;;;;;;;16.81;40.27;98678.84;8320681;28;20197;-80
2022/04/15 17:41:30;;;;;;;2.47;2.00;;;;;;;16.93;39.95;98679.09;8320544;28;20205;-77
2022/04/15 17:45:33;;;;;;;3.20;1.70;;;;;;;17.04;39.85;98684.53;8320539;28;20388;-83
2022/04/15 17:49:39;;;;;;;2.90;2.43;;;;;;;16.84;39.36;98696.16;8320229;28;20228;-77
2022/04/15 17:53:42;;;;;;;3.37;2.20;;;;;;;16.69;39.56;98697.00;8338279;28;20596;-76
2022/04/15 17:57:45;;;;;;;3.60;2.23;;;;;;;16.64;39.46;98712.97;8346634;28;20199;-83
2022/04/15 18:01:50;;;;;;;3.67;1.53;;;;;;;16.63;39.17;98713.06;8338546;28;20207;-78
2022/04/15 18:05:54;;;;;;;2.60;1.67;;;;;;;16.67;38.91;98722.41;8352026;28;20219;-76
2022/04/15 18:10:02;;;;;;;2.20;1.67;;;;;;;16.59;39.52;98728.06;8351832;28;20234;-77
2022/04/15 18:14:05;;;;;;;1.80;1.40;;;;;;;16.57;39.06;98732.56;8351869;28;20227;-77
2022/04/15 18:18:09;;;;;;;2.40;1.90;;;;;;;16.31;39.52;98736.63;8352216;28;20208;-76
2022/04/15 18:22:15;;;;;;;1.60;1.47;;;;;;;16.49;39.87;98753.06;8351542;28;20204;-76
2022/04/15 18:26:18;;;;;;;2.60;1.60;;;;;;;16.14;40.42;98769.75;8351771;28;20227;-75
2022/04/15 18:30:22;;;;;;;3.33;2.00;;;;;;;16.16;40.63;98773.13;8342568;28;20232;-77
2022/04/15 18:34:25;;;;;;;1.90;1.70;;;;;;;15.91;40.72;98784.03;8334594;28;20193;-76
2022/04/15 18:38:30;;;;;;;3.53;1.70;;;;;;;15.83;40.64;98796.66;8339321;28;20223;-77
2022/04/15 18:42:33;;;;;;;2.00;1.73;;;;;;;15.87;40.48;98799.97;8342542;28;20306;-77
2022/04/15 18:46:37;;;;;;;1.63;1.40;;;;;;;15.96;40.56;98802.09;8343587;28;20197;-77
2022/04/15 18:55:02;;;;;;;4.63;1.50;;;;;;;15.86;40.70;98808.72;8332332;28;20192;-77
2022/04/15 18:59:08;;;;;;;1.70;1.60;;;;;;;15.66;40.68;98809.72;8342894;28;20200;-76
2022/04/15 19:03:15;;;;;;;5.20;1.33;;;;;;;15.83;40.55;98807.13;8350049;28;20513;-76
2022/04/15 19:07:19;;;;;;;3.17;1.30;;;;;;;15.83;40.27;98814.94;8346149;28;20197;-75
2022/04/15 19:11:24;;;;;;;1.67;1.27;;;;;;;15.64;40.54;98812.41;8340966;28;20227;-77
2022/04/15 19:15:30;;;;;;;1.10;1.00;;;;;;;15.83;40.24;98821.00;8341614;28;20196;-77
2022/04/15 19:19:33;;;;;;;4.90;1.20;;;;;;;15.40;40.83;98817.97;8341070;28;20196;-77
2022/04/15 19:23:36;;;;;;;2.67;1.20;;;;;;;15.50;40.24;98815.75;8346494;28;20221;-77
2022/04/15 19:27:42;;;;;;;1.57;1.20;;;;;;;15.34;40.68;98820.03;8346109;28;20228;-77